createdAt,value
2018-04-24T00:01:01.292Z,2.60
2018-04-24T00:03:28.805Z,2.40
2018-04-24T00:05:56.347Z,2.67
2018-04-24T00:08:23.852Z,2.87
2018-04-24T00:10:51.337Z,3.17
2018-04-24T00:13:18.853Z,2.90
2018-04-24T00:15:46.329Z,3.07
2018-04-24T00:18:13.883Z,3.20
2018-04-24T00:20:41.352Z,4.00
2018-04-24T00:23:09.593Z,2.80
2018-04-24T00:25:37.093Z,4.40
2018-04-24T00:28:04.590Z,3.20
2018-04-24T00:30:32.845Z,2.87
2018-04-24T00:33:00.368Z,3.50
2018-04-24T00:35:27.853Z,3.20
2018-04-24T00:37:55.329Z,3.83
2018-04-24T00:40:23.541Z,2.97
2018-04-24T00:42:51.054Z,3.70
2018-04-24T00:45:18.527Z,3.80
2018-04-24T00:47:46.033Z,3.57
2018-04-24T00:50:13.500Z,3.53
2018-04-24T00:52:41.068Z,3.33
2018-04-24T00:55:08.556Z,4.03
2018-04-24T00:57:36.029Z,4.77
2018-04-24T01:00:03.527Z,3.90
2018-04-24T01:02:31.037Z,3.40
2018-04-24T01:04:58.522Z,4.83
2018-04-24T01:07:26.012Z,4.67
2018-04-24T01:09:53.495Z,4.43
2018-04-24T01:12:20.992Z,4.73
2018-04-24T01:14:49.234Z,4.60
2018-04-24T01:17:16.772Z,5.03
2018-04-24T01:19:44.252Z,4.60
2018-04-24T01:22:11.749Z,5.07
2018-04-24T01:24:39.259Z,4.90
2018-04-24T01:27:07.507Z,3.80
2018-04-24T01:29:35.004Z,4.40
2018-04-24T01:32:02.519Z,4.30
2018-04-24T01:34:30.020Z,4.70
2018-04-24T01:36:57.512Z,4.33
2018-04-24T01:39:25.016Z,4.57
2018-04-24T01:41:53.269Z,4.93
2018-04-24T01:44:20.747Z,3.60
2018-04-24T01:46:48.249Z,4.40
2018-04-24T01:49:15.732Z,4.30
2018-04-24T01:51:43.225Z,4.87
2018-04-24T01:54:10.717Z,4.60
2018-04-24T01:56:38.264Z,4.20
2018-04-24T01:59:05.728Z,4.80
2018-04-24T02:01:33.253Z,4.47
2018-04-24T02:04:01.506Z,5.00
2018-04-24T02:06:29.037Z,4.23
2018-04-24T02:08:57.272Z,5.70
2018-04-24T02:11:24.794Z,4.73
2018-04-24T02:13:53.030Z,5.17
2018-04-24T02:16:20.518Z,4.43
2018-04-24T02:18:48.020Z,3.77
2018-04-24T02:21:16.300Z,4.53
2018-04-24T02:23:44.564Z,3.93
2018-04-24T02:26:12.048Z,4.80
2018-04-24T02:28:39.545Z,4.73
2018-04-24T02:31:07.043Z,4.47
2018-04-24T02:33:34.551Z,4.47
2018-04-24T02:36:02.032Z,3.73
2018-04-24T02:38:29.529Z,3.77
2018-04-24T02:40:57.768Z,3.20
2018-04-24T02:43:25.273Z,3.83
2018-04-24T02:45:53.576Z,2.97
2018-04-24T02:48:21.055Z,3.87
2018-04-24T02:50:48.558Z,3.27
2018-04-24T02:53:16.021Z,3.70
2018-04-24T02:55:44.284Z,3.13
2018-04-24T02:58:11.753Z,3.23
2018-04-24T03:00:39.281Z,4.53
2018-04-24T03:03:06.754Z,3.73
2018-04-24T03:05:34.280Z,4.40
2018-04-24T03:08:01.761Z,4.30
2018-04-24T03:10:29.253Z,3.27
2018-04-24T03:12:56.764Z,4.00
2018-04-24T03:15:25.045Z,3.30
2018-04-24T03:17:53.317Z,3.90
2018-04-24T03:20:20.785Z,2.87
2018-04-24T03:22:48.276Z,3.50
2018-04-24T03:25:16.512Z,3.50
2018-04-24T03:27:44.017Z,3.30
2018-04-24T03:30:11.489Z,4.37
2018-04-24T03:32:39.771Z,3.00
2018-04-24T03:35:07.253Z,3.50
2018-04-24T03:37:34.768Z,3.30
2018-04-24T03:40:02.250Z,3.33
2018-04-24T03:42:29.722Z,3.70
2018-04-24T03:44:57.229Z,3.60
2018-04-24T03:47:24.710Z,3.90
2018-04-24T03:49:52.207Z,2.90
2018-04-24T03:52:19.684Z,2.63
2018-04-24T03:54:47.177Z,3.10
2018-04-24T03:57:14.717Z,2.77
2018-04-24T03:59:42.161Z,4.10
2018-04-24T04:02:09.641Z,3.70
2018-04-24T04:04:37.908Z,3.13
2018-04-24T04:07:05.393Z,2.53
2018-04-24T04:09:33.677Z,2.70
2018-04-24T04:12:01.168Z,3.03
2018-04-24T04:14:29.444Z,3.17
2018-04-24T04:16:57.684Z,3.17
2018-04-24T04:19:38.185Z,3.00
2018-04-24T04:25:15.622Z,3.27
2018-04-24T04:27:43.105Z,3.53
2018-04-24T04:30:10.616Z,2.80
2018-04-24T04:32:38.076Z,3.37
2018-04-24T04:35:05.576Z,4.17
2018-04-24T04:37:33.088Z,3.10
2018-04-24T04:40:00.565Z,3.27
2018-04-24T04:42:28.070Z,3.10
2018-04-24T04:44:55.565Z,3.40
2018-04-24T04:47:23.117Z,3.10
2018-04-24T04:49:50.607Z,2.97
2018-04-24T04:52:18.090Z,3.30
2018-04-24T04:54:45.581Z,3.10
2018-04-24T04:57:13.059Z,3.60
2018-04-24T04:59:40.590Z,3.73
2018-04-24T05:02:08.064Z,3.43
2018-04-24T05:04:35.567Z,3.43
2018-04-24T05:07:03.029Z,3.87
2018-04-24T05:09:30.524Z,4.00
2018-04-24T05:11:58.018Z,3.33
2018-04-24T05:14:25.522Z,3.17
2018-04-24T05:16:52.994Z,3.60
2018-04-24T05:19:20.497Z,4.10
2018-04-24T05:21:47.964Z,3.73
2018-04-24T05:24:15.479Z,3.87
2018-04-24T05:26:42.963Z,3.20
2018-04-24T05:29:10.447Z,3.23
2018-04-24T05:31:37.971Z,3.63
2018-04-24T05:34:05.450Z,3.93
2018-04-24T05:36:32.949Z,3.77
2018-04-24T05:39:00.425Z,2.80
2018-04-24T05:41:27.936Z,3.63
2018-04-24T05:43:55.408Z,3.27
2018-04-24T05:46:23.673Z,3.30
2018-04-24T05:48:51.153Z,4.07
2018-04-24T05:51:18.684Z,2.70
2018-04-24T05:53:46.157Z,3.33
2018-04-24T05:56:13.640Z,3.40
2018-04-24T05:58:41.169Z,3.33
2018-04-24T06:01:08.679Z,4.13
2018-04-24T06:03:36.247Z,3.07
2018-04-24T06:06:03.723Z,3.57
2018-04-24T06:08:31.294Z,3.30
2018-04-24T06:10:59.535Z,3.20
2018-04-24T06:13:27.933Z,3.50
2018-04-24T06:15:55.462Z,3.77
2018-04-24T06:18:22.973Z,3.00
2018-04-24T06:20:51.216Z,3.00
2018-04-24T06:23:18.685Z,3.63
2018-04-24T06:25:46.172Z,3.03
2018-04-24T06:28:13.649Z,3.07
2018-04-24T06:30:41.152Z,3.33
2018-04-24T06:33:08.621Z,4.63
2018-04-24T06:35:36.137Z,3.67
2018-04-24T06:38:03.612Z,3.50
2018-04-24T06:40:31.117Z,3.80
2018-04-24T06:42:59.351Z,3.77
2018-04-24T06:45:26.857Z,3.70
2018-04-24T06:47:54.348Z,3.70
2018-04-24T06:50:22.639Z,3.17
2018-04-24T06:52:50.879Z,3.10
2018-04-24T06:55:18.518Z,4.10
2018-04-24T06:57:46.033Z,3.40
2018-04-24T07:00:13.509Z,3.30
2018-04-24T07:02:41.004Z,3.60
2018-04-24T07:05:09.261Z,3.83
2018-04-24T07:07:36.774Z,3.43
2018-04-24T07:10:05.010Z,3.87
2018-04-24T07:12:32.509Z,3.80
2018-04-24T07:15:00.053Z,3.87
2018-04-24T07:17:27.572Z,3.43
2018-04-24T07:19:55.858Z,4.10
2018-04-24T07:22:23.379Z,3.43
2018-04-24T07:24:50.886Z,3.90
2018-04-24T07:27:18.366Z,3.80
2018-04-24T07:29:45.871Z,4.20
2018-04-24T07:32:13.581Z,4.30
2018-04-24T07:34:41.103Z,3.97
2018-04-24T07:37:08.587Z,4.47
2018-04-24T07:39:36.100Z,3.40
2018-04-24T07:42:04.573Z,4.10
2018-04-24T07:44:32.060Z,4.40
2018-04-24T07:46:59.574Z,4.50
2018-04-24T07:49:27.821Z,4.23
2018-04-24T07:51:55.632Z,4.17
2018-04-24T07:54:23.160Z,3.83
2018-04-24T07:56:50.669Z,3.60
2018-04-24T07:59:18.235Z,6.00
2018-04-24T08:01:46.436Z,4.73
2018-04-24T08:04:13.961Z,4.00
2018-04-24T08:06:41.711Z,5.03
2018-04-24T08:09:09.311Z,4.97
2018-04-24T08:11:36.874Z,4.73
2018-04-24T08:14:05.193Z,4.30
2018-04-24T08:16:33.067Z,4.97
2018-04-24T08:19:01.395Z,4.50
2018-04-24T08:21:31.119Z,4.37
2018-04-24T08:23:58.652Z,5.23
2018-04-24T08:26:26.160Z,4.77
2018-04-24T08:28:53.644Z,4.80
2018-04-24T08:31:21.152Z,5.20
2018-04-24T08:33:48.676Z,5.10
2018-04-24T08:36:16.139Z,5.37
2018-04-24T08:38:43.632Z,5.07
2018-04-24T08:41:11.932Z,5.87
2018-04-24T08:43:40.188Z,4.40
2018-04-24T08:46:07.676Z,4.50
2018-04-24T08:48:35.956Z,5.30
2018-04-24T08:51:03.432Z,5.57
2018-04-24T08:53:30.939Z,4.87
2018-04-24T08:55:58.410Z,4.90
2018-04-24T08:58:26.675Z,6.70
2018-04-24T09:00:54.620Z,5.73
2018-04-24T09:03:22.125Z,6.43
2018-04-24T09:05:51.259Z,5.97
2018-04-24T09:08:18.760Z,4.87
2018-04-24T09:10:46.295Z,5.50
2018-04-24T09:13:13.805Z,5.30
2018-04-24T09:15:41.339Z,5.30
2018-04-24T09:18:08.856Z,5.60
2018-04-24T09:20:37.435Z,5.90
2018-04-24T09:23:06.016Z,6.03
2018-04-24T09:25:33.553Z,6.80
2018-04-24T09:28:01.869Z,5.80
2018-04-24T09:30:29.379Z,6.00
2018-04-24T09:32:56.903Z,7.33
2018-04-24T09:35:28.343Z,5.93
2018-04-24T09:37:55.872Z,6.90
2018-04-24T09:40:23.374Z,6.43
2018-04-24T09:42:50.953Z,6.30
2018-04-24T09:45:18.513Z,6.60
2018-04-24T09:47:46.066Z,6.67
2018-04-24T09:50:13.564Z,7.30
2018-04-24T09:52:41.067Z,6.33
2018-04-24T09:55:08.595Z,7.03
2018-04-24T09:57:36.081Z,7.80
2018-04-24T10:00:04.373Z,6.20
2018-04-24T10:02:32.665Z,7.87
2018-04-24T10:05:00.912Z,7.23
2018-04-24T10:07:28.423Z,7.10
2018-04-24T10:09:55.947Z,7.80
2018-04-24T10:12:23.485Z,7.77
2018-04-24T10:14:51.765Z,7.47
2018-04-24T10:17:20.053Z,6.93
2018-04-24T10:19:48.340Z,7.53
2018-04-24T10:22:16.617Z,7.00
2018-04-24T10:24:44.111Z,6.53
2018-04-24T10:27:12.399Z,6.40
2018-04-24T10:29:39.905Z,6.10
2018-04-24T10:32:07.421Z,6.67
2018-04-24T10:34:34.913Z,6.73
2018-04-24T10:37:03.196Z,7.03
2018-04-24T10:39:31.494Z,5.93
2018-04-24T10:41:59.760Z,6.60
2018-04-24T10:44:27.281Z,6.13
2018-04-24T10:46:54.778Z,6.87
2018-04-24T10:49:22.260Z,5.40
2018-04-24T10:51:49.840Z,5.80
2018-04-24T10:54:17.250Z,6.70
2018-04-24T10:56:44.738Z,6.50
2018-04-24T10:59:12.250Z,6.30
2018-04-24T11:01:39.749Z,5.63
2018-04-24T11:04:08.018Z,6.77
2018-04-24T11:06:35.520Z,5.90
2018-04-24T11:09:03.038Z,5.60
2018-04-24T11:11:30.517Z,6.27
2018-04-24T11:13:58.016Z,6.20
2018-04-24T11:16:26.265Z,6.80
2018-04-24T11:18:53.764Z,6.13
2018-04-24T11:21:21.306Z,6.57
2018-04-24T11:23:48.757Z,5.97
2018-04-24T11:26:16.227Z,5.20
2018-04-24T11:28:43.697Z,6.37
2018-04-24T11:31:11.201Z,5.63
2018-04-24T11:33:39.434Z,6.50
2018-04-24T11:36:06.939Z,5.80
2018-04-24T11:38:34.422Z,5.03
2018-04-24T11:41:01.937Z,5.50
2018-04-24T11:43:29.434Z,5.60
2018-04-24T11:45:56.955Z,5.17
2018-04-24T11:48:24.465Z,4.63
2018-04-24T11:50:51.953Z,5.80
2018-04-24T11:53:19.462Z,6.40
2018-04-24T11:55:46.945Z,6.00
2018-04-24T11:58:15.196Z,5.60
2018-04-24T12:00:42.719Z,4.80
2018-04-24T12:03:10.233Z,4.87
2018-04-24T12:05:37.736Z,5.17
2018-04-24T12:08:05.220Z,5.03
2018-04-24T12:10:33.638Z,3.40
2018-04-24T12:13:01.132Z,3.83
2018-04-24T12:15:28.617Z,4.10
2018-04-24T12:17:56.132Z,3.90
2018-04-24T12:20:23.630Z,3.20
2018-04-24T12:22:51.120Z,3.10
2018-04-24T12:25:19.373Z,2.90
2018-04-24T12:27:46.872Z,3.60
2018-04-24T12:30:14.385Z,3.10
2018-04-24T12:32:42.644Z,3.70
2018-04-24T12:35:10.112Z,4.00
2018-04-24T12:37:37.613Z,4.60
2018-04-24T12:40:05.088Z,4.60
2018-04-24T12:42:32.590Z,4.03
2018-04-24T12:45:00.104Z,3.80
2018-04-24T12:47:27.596Z,3.83
2018-04-24T12:49:55.068Z,3.30
2018-04-24T12:52:23.352Z,3.50
2018-04-24T12:54:50.829Z,3.60
2018-04-24T12:57:18.319Z,3.93
2018-04-24T12:59:46.596Z,2.83
2018-04-24T13:02:14.840Z,3.20
2018-04-24T13:04:42.339Z,3.17
2018-04-24T13:07:09.821Z,2.80
2018-04-24T13:09:38.060Z,3.33
2018-04-24T13:12:05.549Z,3.10
2018-04-24T13:14:33.024Z,3.67
2018-04-24T13:17:00.517Z,3.70
2018-04-24T13:19:28.005Z,3.40
2018-04-24T13:21:56.264Z,3.50
2018-04-24T13:24:23.752Z,3.80
2018-04-24T13:26:52.012Z,3.87
2018-04-24T13:29:19.501Z,4.60
2018-04-24T13:31:46.982Z,3.67
2018-04-24T13:34:15.237Z,3.80
2018-04-24T13:36:42.712Z,3.70
2018-04-24T13:39:10.216Z,4.60
2018-04-24T13:41:37.730Z,4.53
2018-04-24T13:44:05.265Z,4.70
2018-04-24T13:46:32.761Z,3.80
2018-04-24T13:49:00.245Z,3.67
2018-04-24T13:51:27.829Z,3.77
2018-04-24T13:53:55.325Z,4.00
2018-04-24T13:56:22.813Z,5.37
2018-04-24T13:58:50.301Z,3.60
2018-04-24T14:01:18.565Z,3.50
2018-04-24T14:03:46.044Z,3.23
2018-04-24T14:06:13.549Z,4.17
2018-04-24T14:08:41.020Z,4.23
2018-04-24T14:11:08.545Z,4.10
2018-04-24T14:13:36.029Z,4.40
2018-04-24T14:16:03.521Z,4.40
2018-04-24T14:18:31.792Z,5.20
2018-04-24T14:20:59.268Z,5.10
2018-04-24T14:23:27.524Z,5.50
2018-04-24T14:25:55.005Z,4.50
2018-04-24T14:28:22.501Z,5.20
2018-04-24T14:30:50.772Z,5.77
2018-04-24T14:33:18.273Z,5.83
2018-04-24T14:35:45.740Z,5.20
2018-04-24T14:38:13.321Z,5.27
2018-04-24T14:40:41.744Z,5.60
2018-04-24T14:43:09.225Z,5.73
2018-04-24T14:45:36.731Z,6.80
2018-04-24T14:48:04.973Z,7.43
2018-04-24T14:50:32.480Z,6.30
2018-04-24T14:52:59.994Z,7.27
2018-04-24T14:55:27.507Z,7.20
2018-04-24T14:57:55.073Z,7.33
2018-04-24T15:00:22.557Z,8.33
2018-04-24T15:02:50.117Z,7.80
2018-04-24T15:05:17.674Z,9.87
2018-04-24T15:07:45.200Z,8.70
2018-04-24T15:10:13.445Z,9.07
2018-04-24T15:12:40.947Z,9.23
2018-04-24T15:15:08.468Z,9.47
2018-04-24T15:17:35.932Z,10.77
2018-04-24T15:20:03.429Z,8.83
2018-04-24T15:22:30.909Z,9.07
2018-04-24T15:24:58.399Z,9.30
2018-04-24T15:27:25.895Z,9.40
2018-04-24T15:29:53.401Z,8.43
2018-04-24T15:32:20.882Z,8.50
2018-04-24T15:34:48.416Z,8.13
2018-04-24T15:37:15.929Z,9.40
2018-04-24T15:39:43.452Z,7.80
2018-04-24T15:42:11.700Z,8.90
2018-04-24T15:44:39.173Z,7.77
2018-04-24T15:47:06.676Z,8.47
2018-04-24T15:49:34.927Z,9.67
2018-04-24T15:52:02.429Z,9.73
2018-04-24T15:54:30.676Z,9.53
2018-04-24T15:56:58.190Z,9.00
2018-04-24T15:59:26.433Z,8.93
2018-04-24T16:01:53.916Z,7.53
2018-04-24T16:04:21.416Z,9.17
2018-04-24T16:06:49.696Z,9.23
2018-04-24T16:09:17.976Z,8.53
2018-04-24T16:11:45.456Z,8.23
2018-04-24T16:14:13.709Z,9.90
2018-04-24T16:16:41.196Z,7.83
2018-04-24T16:19:08.692Z,11.40
2018-04-24T16:21:36.185Z,12.57
2018-04-24T16:24:03.699Z,13.93
2018-04-24T16:26:31.176Z,11.30
2018-04-24T16:28:58.676Z,10.40
2018-04-24T16:31:26.156Z,8.40
2018-04-24T16:33:53.734Z,9.67
2018-04-24T16:36:21.171Z,8.23
2018-04-24T16:38:48.663Z,8.33
2018-04-24T16:41:16.153Z,8.97
2018-04-24T16:43:43.640Z,9.63
2018-04-24T16:46:11.911Z,10.13
2018-04-24T16:48:39.456Z,9.37
2018-04-24T16:51:06.965Z,9.73
2018-04-24T16:53:34.474Z,8.67
2018-04-24T16:56:01.973Z,9.87
2018-04-24T16:58:29.460Z,8.40
2018-04-24T17:00:57.704Z,8.17
2018-04-24T17:03:25.240Z,9.37
2018-04-24T17:05:52.768Z,8.53
2018-04-24T17:08:20.269Z,7.63
2018-04-24T17:10:47.744Z,8.70
2018-04-24T17:13:15.225Z,6.70
2018-04-24T17:15:42.847Z,7.60
2018-04-24T17:18:10.346Z,8.00
2018-04-24T17:20:37.852Z,8.93
2018-04-24T17:23:05.325Z,8.43
2018-04-24T17:25:32.924Z,9.10
2018-04-24T17:28:00.319Z,7.93
2018-04-24T17:30:27.803Z,7.93
2018-04-24T17:32:55.301Z,8.07
2018-04-24T17:35:22.822Z,8.30
2018-04-24T17:37:50.288Z,7.60
2018-04-24T17:40:17.773Z,8.40
2018-04-24T17:42:45.294Z,8.40
2018-04-24T17:45:13.537Z,8.40
2018-04-24T17:47:41.025Z,8.37
2018-04-24T17:50:08.529Z,8.70
2018-04-24T17:52:36.024Z,8.83
2018-04-24T17:55:03.522Z,8.30
2018-04-24T17:57:30.996Z,9.50
2018-04-24T17:59:58.506Z,8.10
2018-04-24T18:02:26.767Z,9.10
2018-04-24T18:04:54.252Z,8.50
2018-04-24T18:07:21.746Z,8.50
2018-04-24T18:09:49.988Z,8.53
2018-04-24T18:12:17.625Z,8.57
2018-04-24T18:14:45.101Z,8.87
2018-04-24T18:17:12.681Z,9.77
2018-04-24T18:19:40.177Z,8.00
2018-04-24T18:22:07.665Z,8.80
2018-04-24T18:24:35.181Z,9.03
2018-04-24T18:27:03.392Z,7.77
2018-04-24T18:29:30.905Z,7.70
2018-04-24T18:31:58.410Z,8.83
2018-04-24T18:34:27.105Z,9.03
2018-04-24T18:36:54.901Z,8.80
2018-04-24T18:39:22.397Z,9.60
2018-04-24T18:41:49.906Z,9.40
2018-04-24T18:44:18.166Z,9.30
2018-04-24T18:46:46.128Z,7.53
2018-04-24T18:49:13.601Z,8.77
2018-04-24T18:51:41.113Z,9.10
2018-04-24T18:54:09.358Z,9.27
2018-04-24T18:56:36.867Z,9.00
2018-04-24T18:59:05.190Z,9.77
2018-04-24T19:01:33.400Z,9.80
2018-04-24T19:04:00.893Z,9.97
2018-04-24T19:06:28.398Z,7.80
2018-04-24T19:08:56.665Z,8.70
2018-04-24T19:11:24.161Z,8.53
2018-04-24T19:13:52.778Z,7.40
2018-04-24T19:16:20.321Z,5.73
2018-04-24T19:18:54.232Z,6.70
2018-04-24T19:21:22.479Z,6.50
2018-04-24T19:23:49.984Z,5.63
2018-04-24T19:26:17.513Z,5.67
2018-04-24T19:28:45.080Z,5.20
2018-04-24T19:31:18.222Z,6.37
2018-04-24T19:33:45.713Z,5.67
2018-04-24T19:36:13.209Z,5.60
2018-04-24T19:38:46.448Z,5.30
2018-04-24T19:41:19.537Z,5.33
2018-04-24T19:43:47.784Z,6.30
2018-04-24T19:46:15.269Z,5.00
2018-04-24T19:48:48.361Z,6.20
2018-04-24T19:51:15.912Z,5.20
2018-04-24T19:53:43.432Z,5.80
2018-04-24T19:56:10.941Z,6.10
2018-04-24T19:58:38.563Z,5.80
2018-04-24T20:01:06.843Z,5.80
2018-04-24T20:03:34.414Z,6.87
2018-04-24T20:06:01.948Z,7.07
2018-04-24T20:08:30.216Z,6.00
2018-04-24T20:10:57.729Z,6.67
2018-04-24T20:13:25.214Z,6.90
2018-04-24T20:15:52.805Z,5.83
2018-04-24T20:18:20.334Z,6.00
2018-04-24T20:20:47.813Z,7.23
2018-04-24T20:23:16.084Z,6.73
2018-04-24T20:25:43.632Z,6.63
2018-04-24T20:28:11.137Z,6.70
2018-04-24T20:30:38.628Z,6.03
2018-04-24T20:33:06.893Z,5.83
2018-04-24T20:35:35.135Z,7.60
2018-04-24T20:38:03.400Z,5.90
2018-04-24T20:40:30.937Z,6.67
2018-04-24T20:42:58.504Z,6.90
2018-04-24T20:45:26.017Z,6.30
2018-04-24T20:47:53.553Z,7.00
2018-04-24T20:50:21.053Z,6.07
2018-04-24T20:52:49.317Z,6.33
2018-04-24T20:55:16.801Z,6.63
2018-04-24T20:57:44.310Z,7.00
2018-04-24T21:00:12.554Z,7.30
2018-04-24T21:02:40.037Z,7.13
2018-04-24T21:05:08.337Z,6.87
2018-04-24T21:07:36.603Z,6.60
2018-04-24T21:10:04.093Z,6.83
2018-04-24T21:12:31.607Z,6.60
2018-04-24T21:14:59.106Z,6.60
2018-04-24T21:17:27.224Z,6.73
2018-04-24T21:19:55.502Z,6.03
2018-04-24T21:22:23.026Z,5.73
2018-04-24T21:24:50.498Z,5.97
2018-04-24T21:27:18.017Z,6.60
2018-04-24T21:29:47.263Z,5.70
2018-04-24T21:32:15.582Z,6.63
2018-04-24T21:34:43.960Z,5.10
2018-04-24T21:37:12.217Z,6.50
2018-04-24T21:39:39.763Z,6.50
2018-04-24T21:42:07.244Z,6.00
2018-04-24T21:44:34.749Z,5.60
2018-04-24T21:47:02.235Z,4.80
2018-04-24T21:49:29.738Z,5.93
2018-04-24T21:51:58.006Z,5.67
2018-04-24T21:54:25.530Z,5.83
2018-04-24T21:56:53.056Z,5.43
2018-04-24T21:59:21.297Z,5.90
2018-04-24T22:01:53.701Z,5.40
2018-04-24T22:04:21.201Z,5.30
2018-04-24T22:06:49.471Z,6.03
2018-04-24T22:09:16.974Z,5.87
2018-04-24T22:11:44.462Z,5.00
2018-04-24T22:14:12.759Z,5.50
2018-04-24T22:16:40.267Z,5.23
2018-04-24T22:19:07.809Z,5.50
2018-04-24T22:21:35.348Z,5.77
2018-04-24T22:24:02.853Z,5.23
2018-04-24T22:26:31.135Z,5.40
2018-04-24T22:28:58.658Z,4.83
2018-04-24T22:31:26.174Z,5.60
2018-04-24T22:33:53.666Z,5.37
2018-04-24T22:36:21.927Z,5.60
2018-04-24T22:38:49.435Z,5.40
2018-04-24T22:41:16.909Z,5.40
2018-04-24T22:43:45.156Z,4.60
2018-04-24T22:46:12.685Z,4.83
2018-04-24T22:48:40.933Z,5.03
2018-04-24T22:51:09.226Z,5.70
2018-04-24T22:53:36.734Z,5.20
2018-04-24T22:56:04.222Z,5.83
2018-04-24T22:58:31.715Z,6.10
2018-04-24T23:00:59.201Z,5.20
2018-04-24T23:03:26.791Z,6.40
2018-04-24T23:05:55.050Z,5.10
2018-04-24T23:08:22.553Z,4.97
2018-04-24T23:11:02.622Z,4.70
2018-04-24T23:13:42.834Z,5.30
2018-04-24T23:16:22.216Z,4.87
2018-04-24T23:19:01.513Z,5.27
2018-04-24T23:21:28.526Z,7.00
2018-04-24T23:23:56.043Z,4.97
2018-04-24T23:26:23.549Z,5.33
2018-04-24T23:28:51.049Z,4.77
2018-04-24T23:31:18.525Z,5.27
2018-04-24T23:33:46.820Z,5.80
2018-04-24T23:36:23.099Z,5.97
2018-04-24T23:38:51.365Z,5.53
2018-04-24T23:41:18.838Z,5.80
2018-04-24T23:43:46.309Z,5.13
2018-04-24T23:46:13.810Z,5.00
2018-04-24T23:48:42.061Z,6.03
2018-04-24T23:51:09.573Z,4.63
2018-04-24T23:53:37.068Z,5.70
2018-04-24T23:56:04.557Z,5.67
2018-04-24T23:58:32.049Z,5.07
